sensor_id;sensor_type;location;lat;lon;timestamp;temperature;humidity
69589;SHT31;56792;50.644;17.984;2024-03-17T00:01:04;7.41;73.16
69589;SHT31;56792;50.644;17.984;2024-03-17T00:03:35;7.39;73.16
69589;SHT31;56792;50.644;17.984;2024-03-17T00:06:06;7.37;73.24
69589;SHT31;56792;50.644;17.984;2024-03-17T00:08:36;7.35;73.14
69589;SHT31;56792;50.644;17.984;2024-03-17T00:11:07;7.32;72.83
69589;SHT31;56792;50.644;17.984;2024-03-17T00:13:38;7.29;72.91
69589;SHT31;56792;50.644;17.984;2024-03-17T00:16:08;7.25;72.76
69589;SHT31;56792;50.644;17.984;2024-03-17T00:18:39;7.22;73.01
69589;SHT31;56792;50.644;17.984;2024-03-17T00:21:10;7.17;73.32
69589;SHT31;56792;50.644;17.984;2024-03-17T00:23:40;7.12;73.25
69589;SHT31;56792;50.644;17.984;2024-03-17T00:26:11;7.07;73.45
69589;SHT31;56792;50.644;17.984;2024-03-17T00:28:41;7.02;73.67
69589;SHT31;56792;50.644;17.984;2024-03-17T00:31:14;6.97;73.77
69589;SHT31;56792;50.644;17.984;2024-03-17T00:33:45;6.91;73.88
69589;SHT31;56792;50.644;17.984;2024-03-17T00:36:18;6.87;73.89
69589;SHT31;56792;50.644;17.984;2024-03-17T00:38:49;6.84;74.05
69589;SHT31;56792;50.644;17.984;2024-03-17T00:41:20;6.80;74.14
69589;SHT31;56792;50.644;17.984;2024-03-17T00:43:50;6.75;74.17
69589;SHT31;56792;50.644;17.984;2024-03-17T00:46:21;6.72;74.21
69589;SHT31;56792;50.644;17.984;2024-03-17T00:48:52;6.67;74.37
69589;SHT31;56792;50.644;17.984;2024-03-17T00:51:22;6.61;74.58
69589;SHT31;56792;50.644;17.984;2024-03-17T00:53:53;6.56;74.72
69589;SHT31;56792;50.644;17.984;2024-03-17T00:56:24;6.51;74.96
69589;SHT31;56792;50.644;17.984;2024-03-17T00:58:55;6.48;75.01
69589;SHT31;56792;50.644;17.984;2024-03-17T01:01:25;6.43;75.17
69589;SHT31;56792;50.644;17.984;2024-03-17T01:03:56;6.41;75.24
69589;SHT31;56792;50.644;17.984;2024-03-17T01:06:26;6.36;75.32
69589;SHT31;56792;50.644;17.984;2024-03-17T01:08:58;6.34;75.40
69589;SHT31;56792;50.644;17.984;2024-03-17T01:11:29;6.30;75.40
69589;SHT31;56792;50.644;17.984;2024-03-17T01:13:59;6.26;75.37
69589;SHT31;56792;50.644;17.984;2024-03-17T01:16:30;6.22;75.29
69589;SHT31;56792;50.644;17.984;2024-03-17T01:19:00;6.19;75.23
69589;SHT31;56792;50.644;17.984;2024-03-17T01:21:31;6.15;75.19
69589;SHT31;56792;50.644;17.984;2024-03-17T01:24:01;6.10;75.27
69589;SHT31;56792;50.644;17.984;2024-03-17T01:26:32;6.07;75.23
69589;SHT31;56792;50.644;17.984;2024-03-17T01:29:03;6.04;75.16
69589;SHT31;56792;50.644;17.984;2024-03-17T01:31:35;6.02;75.03
69589;SHT31;56792;50.644;17.984;2024-03-17T01:34:05;5.98;75.13
69589;SHT31;56792;50.644;17.984;2024-03-17T01:36:37;5.94;75.22
69589;SHT31;56792;50.644;17.984;2024-03-17T01:39:08;5.91;75.24
69589;SHT31;56792;50.644;17.984;2024-03-17T01:41:38;5.86;75.27
69589;SHT31;56792;50.644;17.984;2024-03-17T01:44:09;5.83;75.38
69589;SHT31;56792;50.644;17.984;2024-03-17T01:46:54;5.76;75.52
69589;SHT31;56792;50.644;17.984;2024-03-17T01:49:27;5.73;75.44
69589;SHT31;56792;50.644;17.984;2024-03-17T01:51:58;5.69;75.44
69589;SHT31;56792;50.644;17.984;2024-03-17T01:54:31;5.66;75.64
69589;SHT31;56792;50.644;17.984;2024-03-17T01:57:03;5.63;75.82
69589;SHT31;56792;50.644;17.984;2024-03-17T01:59:34;5.61;75.96
69589;SHT31;56792;50.644;17.984;2024-03-17T02:02:05;5.60;76.10
69589;SHT31;56792;50.644;17.984;2024-03-17T02:04:36;5.60;76.30
69589;SHT31;56792;50.644;17.984;2024-03-17T02:07:06;5.58;76.36
69589;SHT31;56792;50.644;17.984;2024-03-17T02:09:37;5.54;76.64
69589;SHT31;56792;50.644;17.984;2024-03-17T02:12:09;5.51;76.73
69589;SHT31;56792;50.644;17.984;2024-03-17T02:14:39;5.45;76.95
69589;SHT31;56792;50.644;17.984;2024-03-17T02:17:10;5.42;77.14
69589;SHT31;56792;50.644;17.984;2024-03-17T02:19:40;5.38;77.22
69589;SHT31;56792;50.644;17.984;2024-03-17T02:22:12;5.33;77.35
69589;SHT31;56792;50.644;17.984;2024-03-17T02:24:44;5.32;77.56
69589;SHT31;56792;50.644;17.984;2024-03-17T02:27:14;5.32;77.68
69589;SHT31;56792;50.644;17.984;2024-03-17T02:29:45;5.34;77.75
69589;SHT31;56792;50.644;17.984;2024-03-17T02:32:15;5.36;77.67
69589;SHT31;56792;50.644;17.984;2024-03-17T02:34:48;5.33;77.82
69589;SHT31;56792;50.644;17.984;2024-03-17T02:37:19;5.29;78.00
69589;SHT31;56792;50.644;17.984;2024-03-17T02:39:49;5.25;78.17
69589;SHT31;56792;50.644;17.984;2024-03-17T02:42:20;5.23;78.28
69589;SHT31;56792;50.644;17.984;2024-03-17T02:44:50;5.20;78.27
69589;SHT31;56792;50.644;17.984;2024-03-17T02:47:21;5.16;78.39
69589;SHT31;56792;50.644;17.984;2024-03-17T02:49:51;5.15;78.41
69589;SHT31;56792;50.644;17.984;2024-03-17T02:52:22;5.12;78.45
69589;SHT31;56792;50.644;17.984;2024-03-17T02:54:52;5.11;78.48
69589;SHT31;56792;50.644;17.984;2024-03-17T02:57:23;5.10;78.60
69589;SHT31;56792;50.644;17.984;2024-03-17T02:59:55;5.07;78.61
69589;SHT31;56792;50.644;17.984;2024-03-17T03:02:26;5.05;78.55
69589;SHT31;56792;50.644;17.984;2024-03-17T03:04:56;5.00;78.56
69589;SHT31;56792;50.644;17.984;2024-03-17T03:07:27;4.97;78.64
69589;SHT31;56792;50.644;17.984;2024-03-17T03:09:57;4.94;78.78
69589;SHT31;56792;50.644;17.984;2024-03-17T03:12:28;4.92;78.88
69589;SHT31;56792;50.644;17.984;2024-03-17T03:14:58;4.92;78.96
69589;SHT31;56792;50.644;17.984;2024-03-17T03:17:29;4.92;78.88
69589;SHT31;56792;50.644;17.984;2024-03-17T03:19:59;4.90;78.89
69589;SHT31;56792;50.644;17.984;2024-03-17T03:22:32;4.86;78.96
69589;SHT31;56792;50.644;17.984;2024-03-17T03:25:02;4.83;79.20
69589;SHT31;56792;50.644;17.984;2024-03-17T03:27:34;4.82;79.12
69589;SHT31;56792;50.644;17.984;2024-03-17T03:30:06;4.79;79.12
69589;SHT31;56792;50.644;17.984;2024-03-17T03:32:38;4.76;79.08
69589;SHT31;56792;50.644;17.984;2024-03-17T03:35:09;4.74;79.02
69589;SHT31;56792;50.644;17.984;2024-03-17T03:37:39;4.74;78.99
69589;SHT31;56792;50.644;17.984;2024-03-17T03:40:11;4.74;78.81
69589;SHT31;56792;50.644;17.984;2024-03-17T03:42:43;4.71;78.70
69589;SHT31;56792;50.644;17.984;2024-03-17T03:45:14;4.69;78.28
69589;SHT31;56792;50.644;17.984;2024-03-17T03:47:45;4.72;77.86
69589;SHT31;56792;50.644;17.984;2024-03-17T03:50:19;4.70;77.90
69589;SHT31;56792;50.644;17.984;2024-03-17T03:52:50;4.67;78.00
69589;SHT31;56792;50.644;17.984;2024-03-17T03:55:21;4.65;77.99
69589;SHT31;56792;50.644;17.984;2024-03-17T03:57:51;4.63;77.91
69589;SHT31;56792;50.644;17.984;2024-03-17T04:00:22;4.62;77.67
69589;SHT31;56792;50.644;17.984;2024-03-17T04:02:56;4.61;77.62
69589;SHT31;56792;50.644;17.984;2024-03-17T04:05:28;4.58;77.70
69589;SHT31;56792;50.644;17.984;2024-03-17T04:07:58;4.55;77.67
69589;SHT31;56792;50.644;17.984;2024-03-17T04:10:29;4.54;77.57
69589;SHT31;56792;50.644;17.984;2024-03-17T04:13:00;4.52;77.61
69589;SHT31;56792;50.644;17.984;2024-03-17T04:15:31;4.50;77.78
69589;SHT31;56792;50.644;17.984;2024-03-17T04:18:01;4.46;77.96
69589;SHT31;56792;50.644;17.984;2024-03-17T04:20:32;4.45;78.16
69589;SHT31;56792;50.644;17.984;2024-03-17T04:23:03;4.41;78.18
69589;SHT31;56792;50.644;17.984;2024-03-17T04:25:34;4.36;78.42
69589;SHT31;56792;50.644;17.984;2024-03-17T04:28:09;4.35;78.64
69589;SHT31;56792;50.644;17.984;2024-03-17T04:30:40;4.34;78.55
69589;SHT31;56792;50.644;17.984;2024-03-17T04:33:12;4.32;78.51
69589;SHT31;56792;50.644;17.984;2024-03-17T04:35:43;4.29;78.49
69589;SHT31;56792;50.644;17.984;2024-03-17T04:38:14;4.27;78.55
69589;SHT31;56792;50.644;17.984;2024-03-17T04:40:46;4.25;78.60
69589;SHT31;56792;50.644;17.984;2024-03-17T04:43:18;4.23;78.61
69589;SHT31;56792;50.644;17.984;2024-03-17T04:45:48;4.20;78.56
69589;SHT31;56792;50.644;17.984;2024-03-17T04:48:30;4.17;78.25
69589;SHT31;56792;50.644;17.984;2024-03-17T04:51:00;4.16;77.96
69589;SHT31;56792;50.644;17.984;2024-03-17T04:53:32;4.14;77.90
69589;SHT31;56792;50.644;17.984;2024-03-17T04:56:02;4.10;77.97
69589;SHT31;56792;50.644;17.984;2024-03-17T04:58:34;4.06;78.02
69589;SHT31;56792;50.644;17.984;2024-03-17T05:01:06;4.03;78.02
69589;SHT31;56792;50.644;17.984;2024-03-17T05:03:36;3.99;77.98
69589;SHT31;56792;50.644;17.984;2024-03-17T05:06:07;3.97;78.01
69589;SHT31;56792;50.644;17.984;2024-03-17T05:08:38;3.94;78.05
69589;SHT31;56792;50.644;17.984;2024-03-17T05:11:08;3.92;78.10
69589;SHT31;56792;50.644;17.984;2024-03-17T05:13:40;3.91;78.16
69589;SHT31;56792;50.644;17.984;2024-03-17T05:16:11;3.90;78.26
69589;SHT31;56792;50.644;17.984;2024-03-17T05:18:42;3.89;78.34
69589;SHT31;56792;50.644;17.984;2024-03-17T05:21:12;3.87;78.35
69589;SHT31;56792;50.644;17.984;2024-03-17T05:23:43;3.84;78.56
69589;SHT31;56792;50.644;17.984;2024-03-17T05:26:14;3.84;78.67
69589;SHT31;56792;50.644;17.984;2024-03-17T05:28:45;3.87;78.50
69589;SHT31;56792;50.644;17.984;2024-03-17T05:31:16;3.88;78.50
69589;SHT31;56792;50.644;17.984;2024-03-17T05:33:48;3.91;78.48
69589;SHT31;56792;50.644;17.984;2024-03-17T05:36:18;3.91;78.37
69589;SHT31;56792;50.644;17.984;2024-03-17T05:38:49;3.92;78.37
69589;SHT31;56792;50.644;17.984;2024-03-17T05:41:19;3.93;78.27
69589;SHT31;56792;50.644;17.984;2024-03-17T05:43:52;3.97;78.14
69589;SHT31;56792;50.644;17.984;2024-03-17T05:46:25;4.01;78.01
69589;SHT31;56792;50.644;17.984;2024-03-17T05:48:55;4.03;77.80
69589;SHT31;56792;50.644;17.984;2024-03-17T05:51:26;4.07;77.66
69589;SHT31;56792;50.644;17.984;2024-03-17T05:53:56;4.13;77.25
69589;SHT31;56792;50.644;17.984;2024-03-17T05:56:27;4.18;77.15
69589;SHT31;56792;50.644;17.984;2024-03-17T05:58:57;4.25;76.74
69589;SHT31;56792;50.644;17.984;2024-03-17T06:01:28;4.34;76.49
69589;SHT31;56792;50.644;17.984;2024-03-17T06:03:58;4.46;76.43
69589;SHT31;56792;50.644;17.984;2024-03-17T06:06:31;4.55;75.85
69589;SHT31;56792;50.644;17.984;2024-03-17T06:09:01;4.63;75.75
69589;SHT31;56792;50.644;17.984;2024-03-17T06:11:35;4.71;75.16
69589;SHT31;56792;50.644;17.984;2024-03-17T06:14:05;4.78;74.50
69589;SHT31;56792;50.644;17.984;2024-03-17T06:16:38;4.84;74.49
69589;SHT31;56792;50.644;17.984;2024-03-17T06:19:10;4.89;74.53
69589;SHT31;56792;50.644;17.984;2024-03-17T06:21:40;4.93;74.70
69589;SHT31;56792;50.644;17.984;2024-03-17T06:24:11;4.95;74.36
69589;SHT31;56792;50.644;17.984;2024-03-17T06:26:41;4.93;74.03
69589;SHT31;56792;50.644;17.984;2024-03-17T06:29:13;4.92;74.26
69589;SHT31;56792;50.644;17.984;2024-03-17T06:31:43;4.90;74.05
69589;SHT31;56792;50.644;17.984;2024-03-17T06:34:15;4.86;73.54
69589;SHT31;56792;50.644;17.984;2024-03-17T06:36:47;4.86;73.26
69589;SHT31;56792;50.644;17.984;2024-03-17T06:39:17;4.92;72.80
69589;SHT31;56792;50.644;17.984;2024-03-17T06:41:48;4.96;72.31
69589;SHT31;56792;50.644;17.984;2024-03-17T06:44:18;5.01;71.65
69589;SHT31;56792;50.644;17.984;2024-03-17T06:46:53;5.06;71.52
69589;SHT31;56792;50.644;17.984;2024-03-17T06:49:24;5.10;71.61
69589;SHT31;56792;50.644;17.984;2024-03-17T06:51:55;5.13;71.27
69589;SHT31;56792;50.644;17.984;2024-03-17T06:54:26;5.18;71.12
69589;SHT31;56792;50.644;17.984;2024-03-17T06:56:58;5.18;70.61
69589;SHT31;56792;50.644;17.984;2024-03-17T06:59:29;5.19;70.63
69589;SHT31;56792;50.644;17.984;2024-03-17T07:02:03;5.18;70.35
69589;SHT31;56792;50.644;17.984;2024-03-17T07:04:35;5.14;70.65
69589;SHT31;56792;50.644;17.984;2024-03-17T07:07:05;5.10;70.69
69589;SHT31;56792;50.644;17.984;2024-03-17T07:09:36;5.09;70.41
69589;SHT31;56792;50.644;17.984;2024-03-17T07:12:07;5.13;70.44
69589;SHT31;56792;50.644;17.984;2024-03-17T07:14:38;5.20;70.44
69589;SHT31;56792;50.644;17.984;2024-03-17T07:17:08;5.26;70.12
69589;SHT31;56792;50.644;17.984;2024-03-17T07:19:39;5.33;69.62
69589;SHT31;56792;50.644;17.984;2024-03-17T07:22:10;5.45;70.33
69589;SHT31;56792;50.644;17.984;2024-03-17T07:24:40;5.53;69.75
69589;SHT31;56792;50.644;17.984;2024-03-17T07:27:11;5.56;68.89
69589;SHT31;56792;50.644;17.984;2024-03-17T07:29:41;5.59;68.58
69589;SHT31;56792;50.644;17.984;2024-03-17T07:32:13;5.61;68.87
69589;SHT31;56792;50.644;17.984;2024-03-17T07:34:43;5.65;68.27
69589;SHT31;56792;50.644;17.984;2024-03-17T07:37:15;5.70;68.15
69589;SHT31;56792;50.644;17.984;2024-03-17T07:39:46;5.71;67.57
69589;SHT31;56792;50.644;17.984;2024-03-17T07:42:16;5.72;67.00
69589;SHT31;56792;50.644;17.984;2024-03-17T07:44:47;5.72;67.15
69589;SHT31;56792;50.644;17.984;2024-03-17T07:47:18;5.82;67.39
69589;SHT31;56792;50.644;17.984;2024-03-17T07:49:48;5.91;67.47
69589;SHT31;56792;50.644;17.984;2024-03-17T07:52:19;5.93;66.48
69589;SHT31;56792;50.644;17.984;2024-03-17T07:54:49;5.94;66.28
69589;SHT31;56792;50.644;17.984;2024-03-17T07:57:20;5.96;66.97
69589;SHT31;56792;50.644;17.984;2024-03-17T07:59:51;5.98;66.74
69589;SHT31;56792;50.644;17.984;2024-03-17T08:02:21;5.96;65.83
69589;SHT31;56792;50.644;17.984;2024-03-17T08:04:52;5.97;65.35
69589;SHT31;56792;50.644;17.984;2024-03-17T08:07:22;5.98;65.54
69589;SHT31;56792;50.644;17.984;2024-03-17T08:09:53;6.06;65.71
69589;SHT31;56792;50.644;17.984;2024-03-17T08:12:23;6.01;65.54
69589;SHT31;56792;50.644;17.984;2024-03-17T08:14:57;6.08;65.85
69589;SHT31;56792;50.644;17.984;2024-03-17T08:17:27;6.20;65.11
69589;SHT31;56792;50.644;17.984;2024-03-17T08:19:58;6.15;64.59
69589;SHT31;56792;50.644;17.984;2024-03-17T08:22:29;6.26;64.36
69589;SHT31;56792;50.644;17.984;2024-03-17T08:25:00;6.38;63.48
69589;SHT31;56792;50.644;17.984;2024-03-17T08:27:32;6.43;63.08
69589;SHT31;56792;50.644;17.984;2024-03-17T08:30:02;6.60;63.20
69589;SHT31;56792;50.644;17.984;2024-03-17T08:32:36;6.62;62.85
69589;SHT31;56792;50.644;17.984;2024-03-17T08:35:07;6.52;62.86
69589;SHT31;56792;50.644;17.984;2024-03-17T08:37:38;6.45;61.50
69589;SHT31;56792;50.644;17.984;2024-03-17T08:40:09;6.41;61.33
69589;SHT31;56792;50.644;17.984;2024-03-17T08:42:40;6.51;62.40
69589;SHT31;56792;50.644;17.984;2024-03-17T08:45:11;6.73;62.87
69589;SHT31;56792;50.644;17.984;2024-03-17T08:47:42;6.83;61.88
69589;SHT31;56792;50.644;17.984;2024-03-17T08:50:18;6.70;60.71
69589;SHT31;56792;50.644;17.984;2024-03-17T08:52:48;6.59;61.23
69589;SHT31;56792;50.644;17.984;2024-03-17T08:55:19;6.58;61.87
69589;SHT31;56792;50.644;17.984;2024-03-17T08:57:49;6.58;61.87
69589;SHT31;56792;50.644;17.984;2024-03-17T09:00:20;6.68;61.69
69589;SHT31;56792;50.644;17.984;2024-03-17T09:02:50;6.70;61.86
69589;SHT31;56792;50.644;17.984;2024-03-17T09:05:21;6.62;60.40
69589;SHT31;56792;50.644;17.984;2024-03-17T09:07:52;6.55;60.15
69589;SHT31;56792;50.644;17.984;2024-03-17T09:10:22;6.56;60.99
69589;SHT31;56792;50.644;17.984;2024-03-17T09:12:53;6.80;61.30
69589;SHT31;56792;50.644;17.984;2024-03-17T09:15:23;6.99;60.90
69589;SHT31;56792;50.644;17.984;2024-03-17T09:17:54;7.22;60.57
69589;SHT31;56792;50.644;17.984;2024-03-17T09:20:25;7.39;59.35
69589;SHT31;56792;50.644;17.984;2024-03-17T09:22:55;7.41;58.75
69589;SHT31;56792;50.644;17.984;2024-03-17T09:25:26;7.26;58.54
69589;SHT31;56792;50.644;17.984;2024-03-17T09:27:56;7.24;59.27
69589;SHT31;56792;50.644;17.984;2024-03-17T09:30:27;7.30;59.50
69589;SHT31;56792;50.644;17.984;2024-03-17T09:32:57;7.34;59.48
69589;SHT31;56792;50.644;17.984;2024-03-17T09:35:28;7.34;58.46
69589;SHT31;56792;50.644;17.984;2024-03-17T09:37:58;7.33;58.08
69589;SHT31;56792;50.644;17.984;2024-03-17T09:40:31;7.30;57.92
69589;SHT31;56792;50.644;17.984;2024-03-17T09:43:01;7.31;58.55
69589;SHT31;56792;50.644;17.984;2024-03-17T09:45:35;7.47;58.94
69589;SHT31;56792;50.644;17.984;2024-03-17T09:48:07;7.59;59.19
69589;SHT31;56792;50.644;17.984;2024-03-17T09:50:45;7.64;58.54
69589;SHT31;56792;50.644;17.984;2024-03-17T09:53:23;7.73;58.51
69589;SHT31;56792;50.644;17.984;2024-03-17T09:55:57;7.69;58.12
69589;SHT31;56792;50.644;17.984;2024-03-17T09:58:33;7.66;58.13
69589;SHT31;56792;50.644;17.984;2024-03-17T10:01:04;7.77;57.77
69589;SHT31;56792;50.644;17.984;2024-03-17T10:03:41;8.12;58.57
69589;SHT31;56792;50.644;17.984;2024-03-17T10:06:18;8.50;56.92
69589;SHT31;56792;50.644;17.984;2024-03-17T10:08:51;8.51;55.67
69589;SHT31;56792;50.644;17.984;2024-03-17T10:11:23;8.56;56.01
69589;SHT31;56792;50.644;17.984;2024-03-17T10:14:02;8.76;54.62
69589;SHT31;56792;50.644;17.984;2024-03-17T10:16:34;8.95;54.45
69589;SHT31;56792;50.644;17.984;2024-03-17T10:19:07;9.28;53.90
69589;SHT31;56792;50.644;17.984;2024-03-17T10:21:41;9.50;52.22
69589;SHT31;56792;50.644;17.984;2024-03-17T10:24:18;9.63;51.71
69589;SHT31;56792;50.644;17.984;2024-03-17T10:26:51;9.69;50.66
69589;SHT31;56792;50.644;17.984;2024-03-17T10:29:24;9.88;51.21
69589;SHT31;56792;50.644;17.984;2024-03-17T10:31:57;9.86;51.06
69589;SHT31;56792;50.644;17.984;2024-03-17T10:34:30;9.60;51.12
69589;SHT31;56792;50.644;17.984;2024-03-17T10:37:07;9.19;51.90
69589;SHT31;56792;50.644;17.984;2024-03-17T10:39:41;8.70;51.80
69589;SHT31;56792;50.644;17.984;2024-03-17T10:42:13;8.55;52.41
69589;SHT31;56792;50.644;17.984;2024-03-17T10:44:51;8.55;52.11
69589;SHT31;56792;50.644;17.984;2024-03-17T10:47:23;8.69;51.89
69589;SHT31;56792;50.644;17.984;2024-03-17T10:49:55;8.83;51.10
69589;SHT31;56792;50.644;17.984;2024-03-17T10:52:30;9.04;51.02
69589;SHT31;56792;50.644;17.984;2024-03-17T10:55:08;9.15;50.39
69589;SHT31;56792;50.644;17.984;2024-03-17T10:57:48;9.33;50.22
69589;SHT31;56792;50.644;17.984;2024-03-17T11:00:22;9.40;50.20
69589;SHT31;56792;50.644;17.984;2024-03-17T11:02:55;9.45;49.14
69589;SHT31;56792;50.644;17.984;2024-03-17T11:05:26;9.39;49.74
69589;SHT31;56792;50.644;17.984;2024-03-17T11:08:00;9.36;49.96
69589;SHT31;56792;50.644;17.984;2024-03-17T11:10:34;9.40;49.83
69589;SHT31;56792;50.644;17.984;2024-03-17T11:13:05;9.59;48.39
69589;SHT31;56792;50.644;17.984;2024-03-17T11:15:53;9.81;48.10
69589;SHT31;56792;50.644;17.984;2024-03-17T11:21:19;10.43;47.79
69589;SHT31;56792;50.644;17.984;2024-03-17T11:23:59;10.55;46.83
69589;SHT31;56792;50.644;17.984;2024-03-17T11:26:31;10.45;47.67
69589;SHT31;56792;50.644;17.984;2024-03-17T11:29:02;10.45;47.59
69589;SHT31;56792;50.644;17.984;2024-03-17T11:31:37;10.44;46.76
69589;SHT31;56792;50.644;17.984;2024-03-17T11:37:03;10.16;46.67
69589;SHT31;56792;50.644;17.984;2024-03-17T11:39:55;10.25;47.41
69589;SHT31;56792;50.644;17.984;2024-03-17T11:42:26;10.33;47.65
69589;SHT31;56792;50.644;17.984;2024-03-17T11:44:59;10.25;45.89
69589;SHT31;56792;50.644;17.984;2024-03-17T11:47:34;10.14;45.05
69589;SHT31;56792;50.644;17.984;2024-03-17T11:50:09;10.08;46.16
69589;SHT31;56792;50.644;17.984;2024-03-17T11:52:42;10.11;46.79
69589;SHT31;56792;50.644;17.984;2024-03-17T11:55:17;10.00;47.59
69589;SHT31;56792;50.644;17.984;2024-03-17T11:57:48;9.78;47.44
69589;SHT31;56792;50.644;17.984;2024-03-17T12:00:25;9.91;47.67
69589;SHT31;56792;50.644;17.984;2024-03-17T12:02:56;9.94;46.46
69589;SHT31;56792;50.644;17.984;2024-03-17T12:05:30;10.14;46.85
69589;SHT31;56792;50.644;17.984;2024-03-17T12:08:00;10.29;46.70
69589;SHT31;56792;50.644;17.984;2024-03-17T12:10:31;10.49;46.34
69589;SHT31;56792;50.644;17.984;2024-03-17T12:13:01;10.53;45.97
69589;SHT31;56792;50.644;17.984;2024-03-17T12:15:38;10.51;46.17
69589;SHT31;56792;50.644;17.984;2024-03-17T12:18:20;10.31;46.32
69589;SHT31;56792;50.644;17.984;2024-03-17T12:20:50;10.00;46.81
69589;SHT31;56792;50.644;17.984;2024-03-17T12:23:21;9.76;47.33
69589;SHT31;56792;50.644;17.984;2024-03-17T12:25:51;9.67;46.61
69589;SHT31;56792;50.644;17.984;2024-03-17T12:28:22;9.67;46.13
69589;SHT31;56792;50.644;17.984;2024-03-17T12:30:53;9.60;45.35
69589;SHT31;56792;50.644;17.984;2024-03-17T12:33:25;9.62;45.63
69589;SHT31;56792;50.644;17.984;2024-03-17T12:35:56;9.72;44.88
69589;SHT31;56792;50.644;17.984;2024-03-17T12:38:30;9.62;44.63
69589;SHT31;56792;50.644;17.984;2024-03-17T12:41:00;9.58;46.08
69589;SHT31;56792;50.644;17.984;2024-03-17T12:43:33;9.65;45.62
69589;SHT31;56792;50.644;17.984;2024-03-17T12:46:04;9.75;45.56
69589;SHT31;56792;50.644;17.984;2024-03-17T12:48:37;9.95;45.43
69589;SHT31;56792;50.644;17.984;2024-03-17T12:51:13;10.21;46.23
69589;SHT31;56792;50.644;17.984;2024-03-17T12:53:44;10.23;45.25
69589;SHT31;56792;50.644;17.984;2024-03-17T12:56:23;9.91;45.21
69589;SHT31;56792;50.644;17.984;2024-03-17T12:59:11;9.65;45.44
69589;SHT31;56792;50.644;17.984;2024-03-17T13:02:01;9.44;44.38
69589;SHT31;56792;50.644;17.984;2024-03-17T13:04:39;9.46;45.41
69589;SHT31;56792;50.644;17.984;2024-03-17T13:07:10;9.57;45.94
69589;SHT31;56792;50.644;17.984;2024-03-17T13:09:42;9.59;46.72
69589;SHT31;56792;50.644;17.984;2024-03-17T13:12:14;9.69;46.08
69589;SHT31;56792;50.644;17.984;2024-03-17T13:14:44;9.76;45.87
69589;SHT31;56792;50.644;17.984;2024-03-17T13:17:15;9.72;44.68
69589;SHT31;56792;50.644;17.984;2024-03-17T13:19:46;9.61;44.29
69589;SHT31;56792;50.644;17.984;2024-03-17T13:22:17;9.75;45.50
69589;SHT31;56792;50.644;17.984;2024-03-17T13:24:47;10.04;45.82
69589;SHT31;56792;50.644;17.984;2024-03-17T13:27:18;10.13;44.87
69589;SHT31;56792;50.644;17.984;2024-03-17T13:29:48;10.13;44.15
69589;SHT31;56792;50.644;17.984;2024-03-17T13:32:20;10.12;44.37
69589;SHT31;56792;50.644;17.984;2024-03-17T13:34:51;10.20;43.60
69589;SHT31;56792;50.644;17.984;2024-03-17T13:37:21;10.16;43.24
69589;SHT31;56792;50.644;17.984;2024-03-17T13:39:52;10.06;43.59
69589;SHT31;56792;50.644;17.984;2024-03-17T13:42:23;10.05;42.99
69589;SHT31;56792;50.644;17.984;2024-03-17T13:44:54;10.09;43.75
69589;SHT31;56792;50.644;17.984;2024-03-17T13:47:24;9.93;43.20
69589;SHT31;56792;50.644;17.984;2024-03-17T13:49:55;9.75;43.12
69589;SHT31;56792;50.644;17.984;2024-03-17T13:52:25;9.75;43.23
69589;SHT31;56792;50.644;17.984;2024-03-17T13:54:56;9.75;44.14
69589;SHT31;56792;50.644;17.984;2024-03-17T13:57:26;9.74;44.34
69589;SHT31;56792;50.644;17.984;2024-03-17T13:59:57;9.69;44.32
69589;SHT31;56792;50.644;17.984;2024-03-17T14:02:38;9.82;45.29
69589;SHT31;56792;50.644;17.984;2024-03-17T14:05:09;9.97;43.40
69589;SHT31;56792;50.644;17.984;2024-03-17T14:07:44;10.02;42.53
69589;SHT31;56792;50.644;17.984;2024-03-17T14:10:15;9.93;41.70
69589;SHT31;56792;50.644;17.984;2024-03-17T14:12:47;9.67;42.67
69589;SHT31;56792;50.644;17.984;2024-03-17T14:15:20;9.57;43.08
69589;SHT31;56792;50.644;17.984;2024-03-17T14:17:51;9.62;43.68
69589;SHT31;56792;50.644;17.984;2024-03-17T14:20:22;9.71;43.84
69589;SHT31;56792;50.644;17.984;2024-03-17T14:22:53;9.72;43.92
69589;SHT31;56792;50.644;17.984;2024-03-17T14:25:25;9.66;43.74
69589;SHT31;56792;50.644;17.984;2024-03-17T14:27:55;9.68;43.99
69589;SHT31;56792;50.644;17.984;2024-03-17T14:30:26;9.64;43.45
69589;SHT31;56792;50.644;17.984;2024-03-17T14:32:57;9.65;44.09
69589;SHT31;56792;50.644;17.984;2024-03-17T14:35:32;9.73;42.89
69589;SHT31;56792;50.644;17.984;2024-03-17T14:38:04;9.83;43.76
69589;SHT31;56792;50.644;17.984;2024-03-17T14:40:35;10.04;44.25
69589;SHT31;56792;50.644;17.984;2024-03-17T14:43:06;10.15;43.83
69589;SHT31;56792;50.644;17.984;2024-03-17T14:45:37;10.22;44.04
69589;SHT31;56792;50.644;17.984;2024-03-17T14:48:08;10.15;44.38
69589;SHT31;56792;50.644;17.984;2024-03-17T14:50:39;10.15;44.69
69589;SHT31;56792;50.644;17.984;2024-03-17T14:53:10;10.16;45.33
69589;SHT31;56792;50.644;17.984;2024-03-17T14:55:40;10.16;45.53
69589;SHT31;56792;50.644;17.984;2024-03-17T14:58:12;10.16;45.53
69589;SHT31;56792;50.644;17.984;2024-03-17T15:00:43;10.14;45.23
69589;SHT31;56792;50.644;17.984;2024-03-17T15:03:13;9.86;44.90
69589;SHT31;56792;50.644;17.984;2024-03-17T15:05:44;9.79;45.91
69589;SHT31;56792;50.644;17.984;2024-03-17T15:08:14;9.77;44.78
69589;SHT31;56792;50.644;17.984;2024-03-17T15:10:45;9.61;44.16
69589;SHT31;56792;50.644;17.984;2024-03-17T15:13:16;9.60;44.55
69589;SHT31;56792;50.644;17.984;2024-03-17T15:15:46;9.53;44.50
69589;SHT31;56792;50.644;17.984;2024-03-17T15:18:18;9.47;44.47
69589;SHT31;56792;50.644;17.984;2024-03-17T15:20:52;9.33;44.37
69589;SHT31;56792;50.644;17.984;2024-03-17T15:23:23;9.28;44.88
69589;SHT31;56792;50.644;17.984;2024-03-17T15:26:00;9.22;44.93
69589;SHT31;56792;50.644;17.984;2024-03-17T15:28:34;9.23;45.65
69589;SHT31;56792;50.644;17.984;2024-03-17T15:31:06;9.20;44.90
69589;SHT31;56792;50.644;17.984;2024-03-17T15:33:38;9.14;45.31
69589;SHT31;56792;50.644;17.984;2024-03-17T15:36:09;9.19;45.80
69589;SHT31;56792;50.644;17.984;2024-03-17T15:38:40;9.21;46.19
69589;SHT31;56792;50.644;17.984;2024-03-17T15:41:10;9.17;46.92
69589;SHT31;56792;50.644;17.984;2024-03-17T15:43:41;9.13;47.63
69589;SHT31;56792;50.644;17.984;2024-03-17T15:46:13;9.12;47.84
69589;SHT31;56792;50.644;17.984;2024-03-17T15:48:45;9.06;47.15
69589;SHT31;56792;50.644;17.984;2024-03-17T15:51:16;9.02;47.19
69589;SHT31;56792;50.644;17.984;2024-03-17T15:53:47;8.87;47.15
69589;SHT31;56792;50.644;17.984;2024-03-17T15:56:19;8.86;47.91
69589;SHT31;56792;50.644;17.984;2024-03-17T15:58:50;8.88;47.97
69589;SHT31;56792;50.644;17.984;2024-03-17T16:01:20;8.90;48.20
69589;SHT31;56792;50.644;17.984;2024-03-17T16:03:52;8.90;48.21